sensor_id;sensor_type;location;lat;lon;timestamp;temperature;humidity
15888;DHT22;56032;51.324;12.376;2022-08-04T00:00:52;25.20;66.40
15888;DHT22;56032;51.324;12.376;2022-08-04T00:03:27;25.10;66.60
15888;DHT22;56032;51.324;12.376;2022-08-04T00:05:58;25.10;66.60
15888;DHT22;56032;51.324;12.376;2022-08-04T00:08:30;25.10;66.70
15888;DHT22;56032;51.324;12.376;2022-08-04T00:11:01;25.10;66.80
15888;DHT22;56032;51.324;12.376;2022-08-04T00:13:31;25.20;67.00
15888;DHT22;56032;51.324;12.376;2022-08-04T00:16:24;25.10;68.30
15888;DHT22;56032;51.324;12.376;2022-08-04T00:18:59;25.00;68.20
15888;DHT22;56032;51.324;12.376;2022-08-04T00:21:29;25.00;67.60
15888;DHT22;56032;51.324;12.376;2022-08-04T00:23:58;25.10;67.30
15888;DHT22;56032;51.324;12.376;2022-08-04T00:26:38;25.00;67.60
15888;DHT22;56032;51.324;12.376;2022-08-04T00:29:08;25.00;67.80
15888;DHT22;56032;51.324;12.376;2022-08-04T00:31:37;25.00;68.00
15888;DHT22;56032;51.324;12.376;2022-08-04T00:34:23;24.90;68.30
15888;DHT22;56032;51.324;12.376;2022-08-04T00:36:52;24.90;68.20
15888;DHT22;56032;51.324;12.376;2022-08-04T00:39:21;24.90;68.90
15888;DHT22;56032;51.324;12.376;2022-08-04T00:42:04;24.80;69.30
15888;DHT22;56032;51.324;12.376;2022-08-04T00:44:41;24.70;70.10
15888;DHT22;56032;51.324;12.376;2022-08-04T00:47:19;24.80;70.40
15888;DHT22;56032;51.324;12.376;2022-08-04T00:50:05;24.70;70.40
15888;DHT22;56032;51.324;12.376;2022-08-04T00:55:26;24.60;71.80
15888;DHT22;56032;51.324;12.376;2022-08-04T00:58:02;24.60;72.40
15888;DHT22;56032;51.324;12.376;2022-08-04T01:00:43;24.60;73.20
15888;DHT22;56032;51.324;12.376;2022-08-04T01:03:17;24.50;73.70
15888;DHT22;56032;51.324;12.376;2022-08-04T01:05:50;24.50;74.40
15888;DHT22;56032;51.324;12.376;2022-08-04T01:11:09;24.40;75.90
15888;DHT22;56032;51.324;12.376;2022-08-04T01:13:47;24.40;76.80
15888;DHT22;56032;51.324;12.376;2022-08-04T01:16:21;24.40;77.80
15888;DHT22;56032;51.324;12.376;2022-08-04T01:18:54;24.30;78.50
15888;DHT22;56032;51.324;12.376;2022-08-04T01:21:42;24.30;79.30
15888;DHT22;56032;51.324;12.376;2022-08-04T01:24:24;24.20;80.20
15888;DHT22;56032;51.324;12.376;2022-08-04T01:26:56;24.20;81.60
15888;DHT22;56032;51.324;12.376;2022-08-04T01:29:29;24.10;82.60
15888;DHT22;56032;51.324;12.376;2022-08-04T01:32:12;24.10;83.60
15888;DHT22;56032;51.324;12.376;2022-08-04T01:34:47;23.90;85.00
15888;DHT22;56032;51.324;12.376;2022-08-04T01:37:20;23.90;86.30
15888;DHT22;56032;51.324;12.376;2022-08-04T01:39:56;23.90;87.90
15888;DHT22;56032;51.324;12.376;2022-08-04T01:42:27;23.80;89.20
15888;DHT22;56032;51.324;12.376;2022-08-04T01:45:01;23.80;90.20
15888;DHT22;56032;51.324;12.376;2022-08-04T01:47:33;23.70;90.90
15888;DHT22;56032;51.324;12.376;2022-08-04T01:50:04;23.70;91.40
15888;DHT22;56032;51.324;12.376;2022-08-04T01:52:34;23.70;92.10
15888;DHT22;56032;51.324;12.376;2022-08-04T01:55:03;23.70;92.70
15888;DHT22;56032;51.324;12.376;2022-08-04T01:57:32;23.70;93.40
15888;DHT22;56032;51.324;12.376;2022-08-04T02:00:08;23.70;94.00
15888;DHT22;56032;51.324;12.376;2022-08-04T02:02:36;23.60;95.40
15888;DHT22;56032;51.324;12.376;2022-08-04T02:05:08;23.50;97.30
15888;DHT22;56032;51.324;12.376;2022-08-04T02:07:42;23.30;99.80
15888;DHT22;56032;51.324;12.376;2022-08-04T02:10:14;23.30;99.90
15888;DHT22;56032;51.324;12.376;2022-08-04T02:12:52;23.30;99.90
15888;DHT22;56032;51.324;12.376;2022-08-04T02:15:28;23.20;99.90
15888;DHT22;56032;51.324;12.376;2022-08-04T02:18:02;23.20;99.90
15888;DHT22;56032;51.324;12.376;2022-08-04T02:20:32;23.20;99.90
15888;DHT22;56032;51.324;12.376;2022-08-04T02:23:02;23.10;99.90
15888;DHT22;56032;51.324;12.376;2022-08-04T02:25:33;23.10;99.90
15888;DHT22;56032;51.324;12.376;2022-08-04T02:28:06;23.00;99.90
15888;DHT22;56032;51.324;12.376;2022-08-04T02:30:38;22.90;99.90
15888;DHT22;56032;51.324;12.376;2022-08-04T02:33:07;22.80;99.90
15888;DHT22;56032;51.324;12.376;2022-08-04T02:35:38;22.90;99.90
15888;DHT22;56032;51.324;12.376;2022-08-04T02:38:15;22.80;99.90
15888;DHT22;56032;51.324;12.376;2022-08-04T02:40:52;22.80;99.90
15888;DHT22;56032;51.324;12.376;2022-08-04T02:43:26;22.80;99.90
15888;DHT22;56032;51.324;12.376;2022-08-04T02:46:17;22.80;99.90
15888;DHT22;56032;51.324;12.376;2022-08-04T02:48:47;22.60;99.90
15888;DHT22;56032;51.324;12.376;2022-08-04T02:51:16;22.50;99.90
15888;DHT22;56032;51.324;12.376;2022-08-04T02:53:46;22.50;99.90
15888;DHT22;56032;51.324;12.376;2022-08-04T02:56:17;22.50;99.90
15888;DHT22;56032;51.324;12.376;2022-08-04T02:58:48;22.40;99.90
15888;DHT22;56032;51.324;12.376;2022-08-04T03:01:18;22.40;99.90
15888;DHT22;56032;51.324;12.376;2022-08-04T03:03:50;22.30;99.90
15888;DHT22;56032;51.324;12.376;2022-08-04T03:09:11;22.30;99.90
15888;DHT22;56032;51.324;12.376;2022-08-04T03:11:50;22.30;99.90
15888;DHT22;56032;51.324;12.376;2022-08-04T03:17:20;22.20;99.90
15888;DHT22;56032;51.324;12.376;2022-08-04T03:19:57;22.20;99.90
15888;DHT22;56032;51.324;12.376;2022-08-04T03:25:48;22.10;99.90
15888;DHT22;56032;51.324;12.376;2022-08-04T03:28:31;22.10;99.90
15888;DHT22;56032;51.324;12.376;2022-08-04T03:31:15;22.10;99.90
15888;DHT22;56032;51.324;12.376;2022-08-04T03:33:57;22.10;99.90
15888;DHT22;56032;51.324;12.376;2022-08-04T03:42:05;21.90;99.90
15888;DHT22;56032;51.324;12.376;2022-08-04T03:44:50;21.90;99.90
15888;DHT22;56032;51.324;12.376;2022-08-04T03:47:31;22.10;99.90
15888;DHT22;56032;51.324;12.376;2022-08-04T03:50:15;22.10;99.90
15888;DHT22;56032;51.324;12.376;2022-08-04T03:55:41;22.10;99.90
15888;DHT22;56032;51.324;12.376;2022-08-04T04:01:03;22.20;99.90
15888;DHT22;56032;51.324;12.376;2022-08-04T04:06:28;22.20;99.90
15888;DHT22;56032;51.324;12.376;2022-08-04T04:09:19;22.20;99.90
15888;DHT22;56032;51.324;12.376;2022-08-04T04:12:14;22.20;99.90
15888;DHT22;56032;51.324;12.376;2022-08-04T04:14:48;22.20;99.90
15888;DHT22;56032;51.324;12.376;2022-08-04T04:17:27;22.80;99.90
15888;DHT22;56032;51.324;12.376;2022-08-04T04:20:18;23.50;99.90
15888;DHT22;56032;51.324;12.376;2022-08-04T04:23:08;24.10;99.90
15888;DHT22;56032;51.324;12.376;2022-08-04T04:25:44;24.50;99.90
15888;DHT22;56032;51.324;12.376;2022-08-04T04:28:31;24.80;99.90
15888;DHT22;56032;51.324;12.376;2022-08-04T04:31:18;25.30;99.90
15888;DHT22;56032;51.324;12.376;2022-08-04T04:33:52;25.60;99.90
15888;DHT22;56032;51.324;12.376;2022-08-04T04:36:28;25.50;99.90
15888;DHT22;56032;51.324;12.376;2022-08-04T04:39:05;25.70;99.90
15888;DHT22;56032;51.324;12.376;2022-08-04T04:41:43;26.00;99.90
15888;DHT22;56032;51.324;12.376;2022-08-04T04:44:26;26.50;99.90
15888;DHT22;56032;51.324;12.376;2022-08-04T04:47:00;26.90;99.90
15888;DHT22;56032;51.324;12.376;2022-08-04T04:49:32;27.10;99.60
15888;DHT22;56032;51.324;12.376;2022-08-04T04:52:04;27.20;98.20
15888;DHT22;56032;51.324;12.376;2022-08-04T04:54:37;27.30;97.30
15888;DHT22;56032;51.324;12.376;2022-08-04T04:57:08;27.60;96.90
15888;DHT22;56032;51.324;12.376;2022-08-04T04:59:41;27.50;96.60
15888;DHT22;56032;51.324;12.376;2022-08-04T05:02:18;27.30;97.30
15888;DHT22;56032;51.324;12.376;2022-08-04T05:04:56;27.00;98.00
15888;DHT22;56032;51.324;12.376;2022-08-04T05:07:50;26.80;99.40
15888;DHT22;56032;51.324;12.376;2022-08-04T05:10:30;26.50;99.90
15888;DHT22;56032;51.324;12.376;2022-08-04T05:13:08;26.20;99.90
15888;DHT22;56032;51.324;12.376;2022-08-04T05:16:05;25.90;99.90
15888;DHT22;56032;51.324;12.376;2022-08-04T05:18:35;25.70;99.90
15888;DHT22;56032;51.324;12.376;2022-08-04T05:21:07;25.50;99.90
15888;DHT22;56032;51.324;12.376;2022-08-04T05:23:43;25.40;99.90
15888;DHT22;56032;51.324;12.376;2022-08-04T05:26:15;25.30;99.90
15888;DHT22;56032;51.324;12.376;2022-08-04T05:28:47;25.20;99.90
15888;DHT22;56032;51.324;12.376;2022-08-04T05:31:17;25.10;99.90
15888;DHT22;56032;51.324;12.376;2022-08-04T05:33:46;25.30;99.90
15888;DHT22;56032;51.324;12.376;2022-08-04T05:36:16;25.30;99.90
15888;DHT22;56032;51.324;12.376;2022-08-04T05:39:06;25.30;99.90
15888;DHT22;56032;51.324;12.376;2022-08-04T05:41:40;25.40;99.90
15888;DHT22;56032;51.324;12.376;2022-08-04T05:44:14;25.60;99.90
15888;DHT22;56032;51.324;12.376;2022-08-04T05:46:44;25.60;99.90
15888;DHT22;56032;51.324;12.376;2022-08-04T05:49:21;25.50;99.90
15888;DHT22;56032;51.324;12.376;2022-08-04T05:51:51;25.20;99.90
15888;DHT22;56032;51.324;12.376;2022-08-04T05:54:20;25.20;99.90
15888;DHT22;56032;51.324;12.376;2022-08-04T05:56:50;25.30;99.90
15888;DHT22;56032;51.324;12.376;2022-08-04T05:59:20;25.50;99.90
15888;DHT22;56032;51.324;12.376;2022-08-04T06:01:52;25.80;99.90
15888;DHT22;56032;51.324;12.376;2022-08-04T06:04:24;25.80;99.90
15888;DHT22;56032;51.324;12.376;2022-08-04T06:06:53;25.70;99.90
15888;DHT22;56032;51.324;12.376;2022-08-04T06:09:22;25.80;99.90
15888;DHT22;56032;51.324;12.376;2022-08-04T06:11:52;25.60;99.90
15888;DHT22;56032;51.324;12.376;2022-08-04T06:14:31;25.40;99.90
15888;DHT22;56032;51.324;12.376;2022-08-04T06:17:01;25.60;99.90
15888;DHT22;56032;51.324;12.376;2022-08-04T06:19:52;25.70;99.90
15888;DHT22;56032;51.324;12.376;2022-08-04T06:22:41;25.80;99.90
15888;DHT22;56032;51.324;12.376;2022-08-04T06:25:12;26.00;99.90
15888;DHT22;56032;51.324;12.376;2022-08-04T06:27:44;25.90;99.90
15888;DHT22;56032;51.324;12.376;2022-08-04T06:30:12;25.80;99.90
15888;DHT22;56032;51.324;12.376;2022-08-04T06:32:45;26.00;99.90
15888;DHT22;56032;51.324;12.376;2022-08-04T06:35:30;26.10;99.90
15888;DHT22;56032;51.324;12.376;2022-08-04T06:37:59;26.10;99.90
15888;DHT22;56032;51.324;12.376;2022-08-04T06:40:28;26.30;99.90
15888;DHT22;56032;51.324;12.376;2022-08-04T06:43:01;26.60;99.90
15888;DHT22;56032;51.324;12.376;2022-08-04T06:45:30;26.70;99.90
15888;DHT22;56032;51.324;12.376;2022-08-04T06:48:01;26.60;98.40
15888;DHT22;56032;51.324;12.376;2022-08-04T06:50:30;26.60;99.60
15888;DHT22;56032;51.324;12.376;2022-08-04T06:53:19;26.70;99.90
15888;DHT22;56032;51.324;12.376;2022-08-04T06:55:48;26.70;99.30
15888;DHT22;56032;51.324;12.376;2022-08-04T06:58:19;26.80;99.40
15888;DHT22;56032;51.324;12.376;2022-08-04T07:00:47;26.70;98.80
15888;DHT22;56032;51.324;12.376;2022-08-04T07:03:17;26.80;98.10
15888;DHT22;56032;51.324;12.376;2022-08-04T07:05:47;26.70;97.60
15888;DHT22;56032;51.324;12.376;2022-08-04T07:08:16;26.70;97.50
15888;DHT22;56032;51.324;12.376;2022-08-04T07:10:44;26.70;97.80
15888;DHT22;56032;51.324;12.376;2022-08-04T07:13:13;27.00;96.50
15888;DHT22;56032;51.324;12.376;2022-08-04T07:15:44;27.20;96.50
15888;DHT22;56032;51.324;12.376;2022-08-04T07:18:13;27.10;96.30
15888;DHT22;56032;51.324;12.376;2022-08-04T07:20:41;27.20;96.20
15888;DHT22;56032;51.324;12.376;2022-08-04T07:23:11;27.30;96.10
15888;DHT22;56032;51.324;12.376;2022-08-04T07:25:44;27.30;95.70
15888;DHT22;56032;51.324;12.376;2022-08-04T07:28:37;27.70;95.30
15888;DHT22;56032;51.324;12.376;2022-08-04T07:31:08;27.90;94.90
15888;DHT22;56032;51.324;12.376;2022-08-04T07:33:57;28.00;93.90
15888;DHT22;56032;51.324;12.376;2022-08-04T07:36:46;28.00;92.70
15888;DHT22;56032;51.324;12.376;2022-08-04T07:39:19;27.90;93.50
15888;DHT22;56032;51.324;12.376;2022-08-04T07:41:55;28.00;92.90
15888;DHT22;56032;51.324;12.376;2022-08-04T07:44:24;28.20;92.80
15888;DHT22;56032;51.324;12.376;2022-08-04T07:46:54;28.20;92.40
15888;DHT22;56032;51.324;12.376;2022-08-04T07:49:22;28.60;91.40
15888;DHT22;56032;51.324;12.376;2022-08-04T07:52:12;28.60;91.20
15888;DHT22;56032;51.324;12.376;2022-08-04T07:54:41;28.70;90.90
15888;DHT22;56032;51.324;12.376;2022-08-04T07:57:11;28.90;90.20
15888;DHT22;56032;51.324;12.376;2022-08-04T08:00:00;29.10;89.60
15888;DHT22;56032;51.324;12.376;2022-08-04T08:02:29;29.20;88.90
15888;DHT22;56032;51.324;12.376;2022-08-04T08:04:59;29.20;86.80
15888;DHT22;56032;51.324;12.376;2022-08-04T08:07:29;29.30;86.50
15888;DHT22;56032;51.324;12.376;2022-08-04T08:09:57;29.30;85.60
15888;DHT22;56032;51.324;12.376;2022-08-04T08:12:26;29.40;84.70
15888;DHT22;56032;51.324;12.376;2022-08-04T08:15:15;29.50;83.70
15888;DHT22;56032;51.324;12.376;2022-08-04T08:17:46;29.70;82.90
15888;DHT22;56032;51.324;12.376;2022-08-04T08:20:25;29.70;80.30
15888;DHT22;56032;51.324;12.376;2022-08-04T08:22:55;29.90;79.60
15888;DHT22;56032;51.324;12.376;2022-08-04T08:25:24;30.00;79.30
15888;DHT22;56032;51.324;12.376;2022-08-04T08:27:52;30.10;78.20
15888;DHT22;56032;51.324;12.376;2022-08-04T08:30:22;30.10;78.20
15888;DHT22;56032;51.324;12.376;2022-08-04T08:33:00;30.20;77.70
15888;DHT22;56032;51.324;12.376;2022-08-04T08:35:33;30.30;77.60
15888;DHT22;56032;51.324;12.376;2022-08-04T08:38:13;30.40;76.80
15888;DHT22;56032;51.324;12.376;2022-08-04T08:40:45;30.40;76.40
15888;DHT22;56032;51.324;12.376;2022-08-04T08:43:22;30.50;76.30
15888;DHT22;56032;51.324;12.376;2022-08-04T08:52:31;30.80;74.40
15888;DHT22;56032;51.324;12.376;2022-08-04T08:55:27;30.90;73.40
15888;DHT22;56032;51.324;12.376;2022-08-04T08:58:01;31.00;74.00
15888;DHT22;56032;51.324;12.376;2022-08-04T09:00:36;31.10;71.80
15888;DHT22;56032;51.324;12.376;2022-08-04T09:06:04;31.30;70.80
15888;DHT22;56032;51.324;12.376;2022-08-04T09:08:46;31.40;69.90
15888;DHT22;56032;51.324;12.376;2022-08-04T09:11:18;31.40;68.60
15888;DHT22;56032;51.324;12.376;2022-08-04T09:13:49;31.50;69.20
15888;DHT22;56032;51.324;12.376;2022-08-04T09:16:20;31.70;67.50
15888;DHT22;56032;51.324;12.376;2022-08-04T09:18:51;31.90;67.70
15888;DHT22;56032;51.324;12.376;2022-08-04T09:21:26;31.90;66.80
15888;DHT22;56032;51.324;12.376;2022-08-04T09:23:59;32.10;65.80
15888;DHT22;56032;51.324;12.376;2022-08-04T09:26:53;32.10;65.20
15888;DHT22;56032;51.324;12.376;2022-08-04T09:29:29;32.20;65.10
15888;DHT22;56032;51.324;12.376;2022-08-04T09:32:00;32.40;65.00
15888;DHT22;56032;51.324;12.376;2022-08-04T09:34:42;32.50;63.10
15888;DHT22;56032;51.324;12.376;2022-08-04T09:37:36;32.60;62.20
15888;DHT22;56032;51.324;12.376;2022-08-04T09:40:16;32.60;61.20
15888;DHT22;56032;51.324;12.376;2022-08-04T09:43:08;32.60;61.40
15888;DHT22;56032;51.324;12.376;2022-08-04T09:45:43;32.80;60.80
15888;DHT22;56032;51.324;12.376;2022-08-04T09:48:18;32.80;60.20
15888;DHT22;56032;51.324;12.376;2022-08-04T09:50:49;33.00;59.80
15888;DHT22;56032;51.324;12.376;2022-08-04T09:53:26;33.00;58.70
15888;DHT22;56032;51.324;12.376;2022-08-04T09:55:59;33.10;58.70
15888;DHT22;56032;51.324;12.376;2022-08-04T10:01:16;33.40;58.30
15888;DHT22;56032;51.324;12.376;2022-08-04T10:03:50;33.40;58.30
15888;DHT22;56032;51.324;12.376;2022-08-04T10:09:11;33.60;56.90
15888;DHT22;56032;51.324;12.376;2022-08-04T10:11:49;33.70;56.50
15888;DHT22;56032;51.324;12.376;2022-08-04T10:14:39;33.80;56.10
15888;DHT22;56032;51.324;12.376;2022-08-04T10:17:19;33.80;55.10
15888;DHT22;56032;51.324;12.376;2022-08-04T10:19:52;33.90;55.30
15888;DHT22;56032;51.324;12.376;2022-08-04T10:22:24;33.90;54.70
15888;DHT22;56032;51.324;12.376;2022-08-04T10:25:21;34.10;54.50
15888;DHT22;56032;51.324;12.376;2022-08-04T10:28:14;34.30;54.10
15888;DHT22;56032;51.324;12.376;2022-08-04T10:30:46;34.40;53.60
15888;DHT22;56032;51.324;12.376;2022-08-04T10:33:20;34.30;53.40
15888;DHT22;56032;51.324;12.376;2022-08-04T10:35:52;34.30;54.30
15888;DHT22;56032;51.324;12.376;2022-08-04T10:38:21;34.40;52.80
15888;DHT22;56032;51.324;12.376;2022-08-04T10:40:55;34.50;53.40
15888;DHT22;56032;51.324;12.376;2022-08-04T10:43:30;34.50;53.40
15888;DHT22;56032;51.324;12.376;2022-08-04T10:46:01;34.40;53.30
15888;DHT22;56032;51.324;12.376;2022-08-04T10:48:35;34.30;52.60
15888;DHT22;56032;51.324;12.376;2022-08-04T10:51:09;34.40;52.60
15888;DHT22;56032;51.324;12.376;2022-08-04T10:53:38;34.60;52.60
15888;DHT22;56032;51.324;12.376;2022-08-04T10:56:10;34.70;51.90
15888;DHT22;56032;51.324;12.376;2022-08-04T10:58:44;34.60;52.10
15888;DHT22;56032;51.324;12.376;2022-08-04T11:01:16;34.40;51.90
15888;DHT22;56032;51.324;12.376;2022-08-04T11:04:09;34.50;52.00
15888;DHT22;56032;51.324;12.376;2022-08-04T11:06:39;34.70;51.70
15888;DHT22;56032;51.324;12.376;2022-08-04T11:09:08;35.00;51.70
15888;DHT22;56032;51.324;12.376;2022-08-04T11:11:42;34.90;51.90
15888;DHT22;56032;51.324;12.376;2022-08-04T11:14:30;34.90;51.50
15888;DHT22;56032;51.324;12.376;2022-08-04T11:17:02;34.80;51.60
15888;DHT22;56032;51.324;12.376;2022-08-04T11:19:33;34.70;51.30
15888;DHT22;56032;51.324;12.376;2022-08-04T11:22:14;34.90;51.70
15888;DHT22;56032;51.324;12.376;2022-08-04T11:24:45;35.10;51.40
15888;DHT22;56032;51.324;12.376;2022-08-04T11:27:19;35.10;51.50
15888;DHT22;56032;51.324;12.376;2022-08-04T11:29:54;35.10;50.80
15888;DHT22;56032;51.324;12.376;2022-08-04T11:32:25;34.90;51.40
15888;DHT22;56032;51.324;12.376;2022-08-04T11:34:59;35.00;51.00
15888;DHT22;56032;51.324;12.376;2022-08-04T11:37:33;35.00;51.30
15888;DHT22;56032;51.324;12.376;2022-08-04T11:40:06;35.10;51.30
15888;DHT22;56032;51.324;12.376;2022-08-04T11:42:37;35.10;50.50
15888;DHT22;56032;51.324;12.376;2022-08-04T11:45:10;35.20;50.40
15888;DHT22;56032;51.324;12.376;2022-08-04T11:47:40;35.20;50.20
15888;DHT22;56032;51.324;12.376;2022-08-04T11:50:13;35.30;49.90
15888;DHT22;56032;51.324;12.376;2022-08-04T11:52:46;35.60;50.50
15888;DHT22;56032;51.324;12.376;2022-08-04T11:55:15;35.70;49.50
15888;DHT22;56032;51.324;12.376;2022-08-04T11:57:45;35.70;49.90
15888;DHT22;56032;51.324;12.376;2022-08-04T12:00:21;35.80;49.30
15888;DHT22;56032;51.324;12.376;2022-08-04T12:05:35;35.70;49.80
15888;DHT22;56032;51.324;12.376;2022-08-04T12:08:11;35.60;49.30
15888;DHT22;56032;51.324;12.376;2022-08-04T12:10:46;35.70;49.10
15888;DHT22;56032;51.324;12.376;2022-08-04T12:13:21;35.70;49.20
15888;DHT22;56032;51.324;12.376;2022-08-04T12:16:00;35.60;48.90
15888;DHT22;56032;51.324;12.376;2022-08-04T12:18:32;35.70;48.90
15888;DHT22;56032;51.324;12.376;2022-08-04T12:21:03;35.60;49.30
15888;DHT22;56032;51.324;12.376;2022-08-04T12:23:36;35.80;49.30
15888;DHT22;56032;51.324;12.376;2022-08-04T12:26:06;35.90;48.90
15888;DHT22;56032;51.324;12.376;2022-08-04T12:28:36;35.80;48.60
15888;DHT22;56032;51.324;12.376;2022-08-04T12:31:27;35.70;48.30
15888;DHT22;56032;51.324;12.376;2022-08-04T12:33:58;35.80;48.90
15888;DHT22;56032;51.324;12.376;2022-08-04T12:36:33;35.80;48.20
15888;DHT22;56032;51.324;12.376;2022-08-04T12:39:05;35.80;48.50
15888;DHT22;56032;51.324;12.376;2022-08-04T12:41:38;36.00;48.50
15888;DHT22;56032;51.324;12.376;2022-08-04T12:44:09;36.00;48.00
15888;DHT22;56032;51.324;12.376;2022-08-04T12:47:00;35.90;48.10
15888;DHT22;56032;51.324;12.376;2022-08-04T12:49:49;36.00;48.00
15888;DHT22;56032;51.324;12.376;2022-08-04T12:52:29;36.20;48.50
15888;DHT22;56032;51.324;12.376;2022-08-04T12:55:20;36.00;47.70
15888;DHT22;56032;51.324;12.376;2022-08-04T12:57:50;35.80;48.40
15888;DHT22;56032;51.324;12.376;2022-08-04T13:00:23;36.00;48.50
15888;DHT22;56032;51.324;12.376;2022-08-04T13:03:02;35.90;48.00
15888;DHT22;56032;51.324;12.376;2022-08-04T13:05:36;36.00;48.40
15888;DHT22;56032;51.324;12.376;2022-08-04T13:08:06;36.10;47.80
15888;DHT22;56032;51.324;12.376;2022-08-04T13:10:36;35.90;47.60
15888;DHT22;56032;51.324;12.376;2022-08-04T13:13:05;35.90;48.70
15888;DHT22;56032;51.324;12.376;2022-08-04T13:15:38;35.80;47.60
15888;DHT22;56032;51.324;12.376;2022-08-04T13:18:23;36.30;48.10
15888;DHT22;56032;51.324;12.376;2022-08-04T13:21:11;36.40;47.30
15888;DHT22;56032;51.324;12.376;2022-08-04T13:23:48;36.40;47.20
15888;DHT22;56032;51.324;12.376;2022-08-04T13:26:37;36.30;47.70
15888;DHT22;56032;51.324;12.376;2022-08-04T13:29:22;35.90;47.30
15888;DHT22;56032;51.324;12.376;2022-08-04T13:32:14;35.60;47.30
15888;DHT22;56032;51.324;12.376;2022-08-04T13:34:46;35.80;47.50
15888;DHT22;56032;51.324;12.376;2022-08-04T13:37:19;36.00;47.10
15888;DHT22;56032;51.324;12.376;2022-08-04T13:39:49;36.10;47.10
15888;DHT22;56032;51.324;12.376;2022-08-04T13:42:23;36.10;47.10
15888;DHT22;56032;51.324;12.376;2022-08-04T13:44:53;36.20;47.30
15888;DHT22;56032;51.324;12.376;2022-08-04T13:47:24;36.30;47.00
15888;DHT22;56032;51.324;12.376;2022-08-04T13:52:50;36.30;47.10
15888;DHT22;56032;51.324;12.376;2022-08-04T13:55:24;36.20;47.30
15888;DHT22;56032;51.324;12.376;2022-08-04T13:57:56;36.10;47.10
15888;DHT22;56032;51.324;12.376;2022-08-04T14:00:26;36.10;47.30
15888;DHT22;56032;51.324;12.376;2022-08-04T14:03:00;36.20;47.00
15888;DHT22;56032;51.324;12.376;2022-08-04T14:08:33;36.20;47.70
15888;DHT22;56032;51.324;12.376;2022-08-04T14:11:03;36.10;47.40
15888;DHT22;56032;51.324;12.376;2022-08-04T14:13:32;36.30;47.00
15888;DHT22;56032;51.324;12.376;2022-08-04T14:16:14;36.30;46.30
15888;DHT22;56032;51.324;12.376;2022-08-04T14:18:43;36.40;46.60
15888;DHT22;56032;51.324;12.376;2022-08-04T14:21:12;36.40;46.40
15888;DHT22;56032;51.324;12.376;2022-08-04T14:23:43;36.30;46.20
15888;DHT22;56032;51.324;12.376;2022-08-04T14:26:16;36.20;46.60
15888;DHT22;56032;51.324;12.376;2022-08-04T14:28:45;36.30;46.80
15888;DHT22;56032;51.324;12.376;2022-08-04T14:31:33;36.40;46.60
15888;DHT22;56032;51.324;12.376;2022-08-04T14:34:25;36.40;46.40
15888;DHT22;56032;51.324;12.376;2022-08-04T14:36:54;36.50;46.80
15888;DHT22;56032;51.324;12.376;2022-08-04T14:39:45;36.40;46.40
15888;DHT22;56032;51.324;12.376;2022-08-04T14:42:40;36.40;46.20
15888;DHT22;56032;51.324;12.376;2022-08-04T14:45:09;36.30;46.20
15888;DHT22;56032;51.324;12.376;2022-08-04T14:47:42;36.40;46.70
15888;DHT22;56032;51.324;12.376;2022-08-04T14:50:31;36.30;47.10
15888;DHT22;56032;51.324;12.376;2022-08-04T14:53:04;36.30;46.80
15888;DHT22;56032;51.324;12.376;2022-08-04T14:55:36;36.30;47.10
15888;DHT22;56032;51.324;12.376;2022-08-04T14:58:05;36.40;46.80
15888;DHT22;56032;51.324;12.376;2022-08-04T15:00:56;36.50;47.00
15888;DHT22;56032;51.324;12.376;2022-08-04T15:03:25;36.40;46.40
15888;DHT22;56032;51.324;12.376;2022-08-04T15:05:55;36.20;46.60
15888;DHT22;56032;51.324;12.376;2022-08-04T15:08:29;36.00;46.60
15888;DHT22;56032;51.324;12.376;2022-08-04T15:11:00;35.70;47.40
15888;DHT22;56032;51.324;12.376;2022-08-04T15:13:29;35.60;47.70
15888;DHT22;56032;51.324;12.376;2022-08-04T15:15:59;35.50;47.40
15888;DHT22;56032;51.324;12.376;2022-08-04T15:18:34;35.30;47.70
15888;DHT22;56032;51.324;12.376;2022-08-04T15:21:05;35.20;48.00
15888;DHT22;56032;51.324;12.376;2022-08-04T15:23:34;35.20;47.60
15888;DHT22;56032;51.324;12.376;2022-08-04T15:26:08;35.40;47.80
15888;DHT22;56032;51.324;12.376;2022-08-04T15:28:37;35.40;49.50
15888;DHT22;56032;51.324;12.376;2022-08-04T15:31:07;35.60;47.80
15888;DHT22;56032;51.324;12.376;2022-08-04T15:33:56;35.60;47.20
15888;DHT22;56032;51.324;12.376;2022-08-04T15:36:27;35.80;47.00
15888;DHT22;56032;51.324;12.376;2022-08-04T15:39:00;35.90;47.50
15888;DHT22;56032;51.324;12.376;2022-08-04T15:41:34;35.60;48.20
15888;DHT22;56032;51.324;12.376;2022-08-04T15:47:10;35.20;48.30
15888;DHT22;56032;51.324;12.376;2022-08-04T15:49:39;35.20;48.60
15888;DHT22;56032;51.324;12.376;2022-08-04T15:52:09;35.10;48.40
15888;DHT22;56032;51.324;12.376;2022-08-04T15:54:38;35.00;47.90
15888;DHT22;56032;51.324;12.376;2022-08-04T15:57:19;35.00;48.10
15888;DHT22;56032;51.324;12.376;2022-08-04T16:00:09;35.10;48.30
15888;DHT22;56032;51.324;12.376;2022-08-04T16:02:42;35.20;47.80
15888;DHT22;56032;51.324;12.376;2022-08-04T16:08:08;35.60;46.90
15888;DHT22;56032;51.324;12.376;2022-08-04T16:10:38;35.60;47.60
15888;DHT22;56032;51.324;12.376;2022-08-04T16:13:08;35.60;47.20
15888;DHT22;56032;51.324;12.376;2022-08-04T16:15:41;35.50;47.60
15888;DHT22;56032;51.324;12.376;2022-08-04T16:18:10;35.50;47.40
15888;DHT22;56032;51.324;12.376;2022-08-04T16:20:58;35.50;49.20
15888;DHT22;56032;51.324;12.376;2022-08-04T16:23:45;35.50;48.60
15888;DHT22;56032;51.324;12.376;2022-08-04T16:26:43;35.30;48.20
15888;DHT22;56032;51.324;12.376;2022-08-04T16:29:30;35.40;48.00
15888;DHT22;56032;51.324;12.376;2022-08-04T16:32:09;35.40;48.40
15888;DHT22;56032;51.324;12.376;2022-08-04T16:34:39;35.40;47.90
15888;DHT22;56032;51.324;12.376;2022-08-04T16:37:20;35.40;48.30
15888;DHT22;56032;51.324;12.376;2022-08-04T16:39:50;35.40;48.10
15888;DHT22;56032;51.324;12.376;2022-08-04T16:42:38;35.40;47.70
15888;DHT22;56032;51.324;12.376;2022-08-04T16:45:11;35.50;48.00
15888;DHT22;56032;51.324;12.376;2022-08-04T16:50:23;35.40;47.90
15888;DHT22;56032;51.324;12.376;2022-08-04T16:52:52;35.20;49.00
15888;DHT22;56032;51.324;12.376;2022-08-04T16:55:21;35.20;48.00
15888;DHT22;56032;51.324;12.376;2022-08-04T16:57:51;35.20;47.70
15888;DHT22;56032;51.324;12.376;2022-08-04T17:00:28;35.20;47.80
15888;DHT22;56032;51.324;12.376;2022-08-04T17:02:58;35.00;49.00
15888;DHT22;56032;51.324;12.376;2022-08-04T17:05:28;35.00;48.20